Armstrong, Alabama
Current Conditions -  °F | °C
As of 10:55 PM on Friday 28 Nov 2014 (Local Time) from KAUO Reporting Station
Clear Clear  
Wind Chill: 37°   Ceiling: Unl
Heat Index: 37°   Visibility: 10mi
Dew Point: 19°   Wind: 0mph
Humidity: 48%   Direction: NA
Pressure: 30.3"   Gusts: NA
Location:  32.2227°N, 85.6394°W
Report Text: KAUO 290455Z AUTO 00000KT 10SM CLR 03/M07 A3030 RMK AO1
Loading
Personal Weather Stations






























Interactive Weather Map New forecast layout! Learn more

10-Day Weather Forecast

Advertisements
Track Severe Weather on mobile